sensor_id;sensor_type;location;lat;lon;timestamp;pressure;altitude;pressure_sealevel;temperature;humidity
30935;BME280;51033;42.648;23.292;2022-10-18T00:00:31;95338.72;;;9.95;44.23
30935;BME280;51033;42.648;23.292;2022-10-18T00:02:57;95341.13;;;9.91;44.47
30935;BME280;51033;42.648;23.292;2022-10-18T00:05:22;95329.47;;;9.87;44.49
30935;BME280;51033;42.648;23.292;2022-10-18T00:07:47;95349.59;;;9.98;44.51
30935;BME280;51033;42.648;23.292;2022-10-18T00:10:13;95340.06;;;9.92;44.47
30935;BME280;51033;42.648;23.292;2022-10-18T00:12:39;95354.91;;;9.98;44.71
30935;BME280;51033;42.648;23.292;2022-10-18T00:15:06;95334.75;;;9.92;44.69
30935;BME280;51033;42.648;23.292;2022-10-18T00:17:34;95302.38;;;9.75;44.67
30935;BME280;51033;42.648;23.292;2022-10-18T00:19:59;95309.28;;;9.76;44.68
30935;BME280;51033;42.648;23.292;2022-10-18T00:22:25;95331.00;;;9.93;44.29
30935;BME280;51033;42.648;23.292;2022-10-18T00:24:50;95328.34;;;9.93;44.48
30935;BME280;51033;42.648;23.292;2022-10-18T00:27:15;95326.25;;;9.90;44.58
30935;BME280;51033;42.648;23.292;2022-10-18T00:29:41;95320.94;;;9.90;44.61
30935;BME280;51033;42.648;23.292;2022-10-18T00:32:07;95316.16;;;9.87;44.70
30935;BME280;51033;42.648;23.292;2022-10-18T00:34:32;95276.41;;;9.62;44.68
30935;BME280;51033;42.648;23.292;2022-10-18T00:36:57;95317.72;;;9.88;44.42
30935;BME280;51033;42.648;23.292;2022-10-18T00:39:23;95309.78;;;9.83;44.71
30935;BME280;51033;42.648;23.292;2022-10-18T00:41:49;95298.09;;;9.79;44.60
30935;BME280;51033;42.648;23.292;2022-10-18T00:46:43;95298.91;;;9.79;44.62
30935;BME280;51033;42.648;23.292;2022-10-18T00:49:19;95304.75;;;9.81;44.54
30935;BME280;51033;42.648;23.292;2022-10-18T00:51:50;95297.63;;;9.72;44.56
30935;BME280;51033;42.648;23.292;2022-10-18T00:54:18;95248.84;;;9.37;44.64
30935;BME280;51033;42.648;23.292;2022-10-18T00:56:44;95274.84;;;9.51;44.63
30935;BME280;51033;42.648;23.292;2022-10-18T00:59:11;95307.19;;;9.68;44.79
30935;BME280;51033;42.648;23.292;2022-10-18T01:01:38;95266.38;;;9.43;44.70
30935;BME280;51033;42.648;23.292;2022-10-18T01:04:03;95288.09;;;9.56;44.88
30935;BME280;51033;42.648;23.292;2022-10-18T01:06:29;95279.59;;;9.54;44.92
30935;BME280;51033;42.648;23.292;2022-10-18T01:21:54;95262.66;;;9.29;44.80
30935;BME280;51033;42.648;23.292;2022-10-18T01:32:48;95250.50;;;9.13;45.08
30935;BME280;51033;42.648;23.292;2022-10-18T01:35:28;95248.91;;;9.17;45.15
30935;BME280;51033;42.648;23.292;2022-10-18T01:37:56;95277.53;;;9.30;45.03
30935;BME280;51033;42.648;23.292;2022-10-18T01:40:24;95261.38;;;9.12;45.25
30935;BME280;51033;42.648;23.292;2022-10-18T01:42:50;95244.38;;;9.08;45.30
30935;BME280;51033;42.648;23.292;2022-10-18T01:45:17;95271.44;;;9.25;45.54
30935;BME280;51033;42.648;23.292;2022-10-18T01:47:45;95241.19;;;9.00;45.52
30935;BME280;51033;42.648;23.292;2022-10-18T01:50:12;95219.72;;;8.92;45.30
30935;BME280;51033;42.648;23.292;2022-10-18T01:52:50;95256.31;;;9.20;45.15
30935;BME280;51033;42.648;23.292;2022-10-18T01:55:17;95247.31;;;9.01;45.25
30935;BME280;51033;42.648;23.292;2022-10-18T01:58:15;95251.53;;;9.07;45.21
30935;BME280;51033;42.648;23.292;2022-10-18T02:00:45;95238.31;;;8.87;45.49
30935;BME280;51033;42.648;23.292;2022-10-18T02:03:21;95268.00;;;9.09;45.43
30935;BME280;51033;42.648;23.292;2022-10-18T02:06:07;95259.53;;;9.02;45.55
30935;BME280;51033;42.648;23.292;2022-10-18T02:08:43;95266.13;;;9.10;45.48
30935;BME280;51033;42.648;23.292;2022-10-18T02:11:13;95258.97;;;9.10;45.51
30935;BME280;51033;42.648;23.292;2022-10-18T02:13:47;95225.28;;;8.85;45.42
30935;BME280;51033;42.648;23.292;2022-10-18T02:16:22;95255.00;;;9.08;45.41
30935;BME280;51033;42.648;23.292;2022-10-18T02:19:14;95258.72;;;9.01;45.61
30935;BME280;51033;42.648;23.292;2022-10-18T02:21:44;95255.00;;;8.97;45.26
30935;BME280;51033;42.648;23.292;2022-10-18T02:24:12;95258.97;;;9.00;45.28
30935;BME280;51033;42.648;23.292;2022-10-18T02:26:39;95209.69;;;8.69;45.62
30935;BME280;51033;42.648;23.292;2022-10-18T02:29:04;95252.91;;;8.99;45.32
30935;BME280;51033;42.648;23.292;2022-10-18T02:34:27;95240.72;;;8.83;45.47
30935;BME280;51033;42.648;23.292;2022-10-18T02:36:52;95259.53;;;8.87;45.32
30935;BME280;51033;42.648;23.292;2022-10-18T02:39:33;95252.13;;;8.74;45.45
30935;BME280;51033;42.648;23.292;2022-10-18T02:42:00;95269.09;;;8.78;45.74
30935;BME280;51033;42.648;23.292;2022-10-18T02:44:31;95237.25;;;8.52;45.61
30935;BME280;51033;42.648;23.292;2022-10-18T02:46:56;95203.59;;;8.33;45.83
30935;BME280;51033;42.648;23.292;2022-10-18T02:49:22;95255.81;;;8.63;45.86
30935;BME280;51033;42.648;23.292;2022-10-18T02:51:47;95246.03;;;8.63;46.15
30935;BME280;51033;42.648;23.292;2022-10-18T02:54:12;95268.56;;;8.76;46.16
30935;BME280;51033;42.648;23.292;2022-10-18T02:56:38;95228.78;;;8.50;45.88
30935;BME280;51033;42.648;23.292;2022-10-18T02:59:03;95265.38;;;8.74;45.91
30935;BME280;51033;42.648;23.292;2022-10-18T03:01:32;95245.22;;;8.68;46.04
30935;BME280;51033;42.648;23.292;2022-10-18T03:03:57;95255.56;;;8.74;45.98
30935;BME280;51033;42.648;23.292;2022-10-18T03:06:23;95224.00;;;8.47;46.03
30935;BME280;51033;42.648;23.292;2022-10-18T03:08:48;95228.00;;;8.45;45.76
30935;BME280;51033;42.648;23.292;2022-10-18T03:11:13;95248.41;;;8.59;45.86
30935;BME280;51033;42.648;23.292;2022-10-18T03:13:39;95267.50;;;8.62;46.04
30935;BME280;51033;42.648;23.292;2022-10-18T03:16:04;95247.63;;;8.54;45.82
30935;BME280;51033;42.648;23.292;2022-10-18T03:18:30;95229.31;;;8.37;46.22
30935;BME280;51033;42.648;23.292;2022-10-18T03:20:55;95254.50;;;8.45;45.98
30935;BME280;51033;42.648;23.292;2022-10-18T03:23:20;95240.97;;;8.31;46.09
30935;BME280;51033;42.648;23.292;2022-10-18T03:25:46;95231.69;;;8.24;46.36
30935;BME280;51033;42.648;23.292;2022-10-18T03:28:11;95259.53;;;8.36;46.50
30935;BME280;51033;42.648;23.292;2022-10-18T03:30:37;95220.81;;;8.15;46.28
30935;BME280;51033;42.648;23.292;2022-10-18T03:33:04;95260.59;;;8.35;46.57
30935;BME280;51033;42.648;23.292;2022-10-18T03:35:30;95208.59;;;8.04;46.50
30935;BME280;51033;42.648;23.292;2022-10-18T03:37:55;95216.56;;;8.09;46.67
30935;BME280;51033;42.648;23.292;2022-10-18T03:40:20;95259.53;;;8.31;46.77
30935;BME280;51033;42.648;23.292;2022-10-18T03:42:46;95251.84;;;8.25;46.69
30935;BME280;51033;42.648;23.292;2022-10-18T03:45:11;95210.72;;;8.02;46.54
30935;BME280;51033;42.648;23.292;2022-10-18T03:47:36;95233.00;;;8.11;46.56
30935;BME280;51033;42.648;23.292;2022-10-18T03:50:02;95272.25;;;8.29;46.62
30935;BME280;51033;42.648;23.292;2022-10-18T03:52:28;95243.59;;;8.11;46.43
30935;BME280;51033;42.648;23.292;2022-10-18T03:54:53;95259.00;;;8.24;46.63
30935;BME280;51033;42.648;23.292;2022-10-18T03:57:18;95258.19;;;8.19;46.46
30935;BME280;51033;42.648;23.292;2022-10-18T03:59:44;95277.53;;;8.24;46.52
30935;BME280;51033;42.648;23.292;2022-10-18T04:02:09;95239.88;;;8.02;46.59
30935;BME280;51033;42.648;23.292;2022-10-18T04:04:35;95270.91;;;8.17;46.29
30935;BME280;51033;42.648;23.292;2022-10-18T04:07:00;95281.50;;;8.17;46.58
30935;BME280;51033;42.648;23.292;2022-10-18T04:09:25;95223.38;;;7.80;46.54
30935;BME280;51033;42.648;23.292;2022-10-18T04:11:51;95252.03;;;7.93;46.63
30935;BME280;51033;42.648;23.292;2022-10-18T04:14:17;95268.22;;;8.01;46.59
30935;BME280;51033;42.648;23.292;2022-10-18T04:16:42;95237.69;;;7.79;46.72
30935;BME280;51033;42.648;23.292;2022-10-18T04:19:08;95243.78;;;7.84;47.02
30935;BME280;51033;42.648;23.292;2022-10-18T04:21:33;95263.72;;;7.97;46.81
30935;BME280;51033;42.648;23.292;2022-10-18T04:23:58;95222.25;;;7.65;46.81
30935;BME280;51033;42.648;23.292;2022-10-18T04:26:24;95228.09;;;7.62;47.27
30935;BME280;51033;42.648;23.292;2022-10-18T04:28:49;95265.00;;;7.89;47.46
30935;BME280;51033;42.648;23.292;2022-10-18T04:31:15;95262.09;;;7.86;47.39
30935;BME280;51033;42.648;23.292;2022-10-18T04:33:40;95220.63;;;7.59;47.27
30935;BME280;51033;42.648;23.292;2022-10-18T04:36:06;95225.44;;;7.67;47.16
30935;BME280;51033;42.648;23.292;2022-10-18T04:38:32;95230.22;;;7.70;47.06
30935;BME280;51033;42.648;23.292;2022-10-18T04:40:57;95218.56;;;7.66;47.25
30935;BME280;51033;42.648;23.292;2022-10-18T04:43:23;95252.00;;;7.83;47.32
30935;BME280;51033;42.648;23.292;2022-10-18T04:45:48;95251.75;;;7.84;47.05
30935;BME280;51033;42.648;23.292;2022-10-18T04:48:16;95208.41;;;7.38;47.50
30935;BME280;51033;42.648;23.292;2022-10-18T04:50:41;95239.19;;;7.59;47.42
30935;BME280;51033;42.648;23.292;2022-10-18T04:53:07;95256.41;;;7.62;47.44
30935;BME280;51033;42.648;23.292;2022-10-18T04:55:32;95237.56;;;7.53;47.49
30935;BME280;51033;42.648;23.292;2022-10-18T04:57:58;95247.13;;;7.64;47.40
30935;BME280;51033;42.648;23.292;2022-10-18T05:00:23;95246.06;;;7.60;47.50
30935;BME280;51033;42.648;23.292;2022-10-18T05:02:48;95194.06;;;7.34;48.00
30935;BME280;51033;42.648;23.292;2022-10-18T05:05:14;95233.63;;;7.61;47.73
30935;BME280;51033;42.648;23.292;2022-10-18T05:07:40;95233.59;;;7.56;47.86
30935;BME280;51033;42.648;23.292;2022-10-18T05:10:05;95236.81;;;7.58;48.03
30935;BME280;51033;42.648;23.292;2022-10-18T05:12:31;95211.06;;;7.43;47.90
30935;BME280;51033;42.648;23.292;2022-10-18T05:14:56;95199.94;;;7.41;48.10
30935;BME280;51033;42.648;23.292;2022-10-18T05:17:22;95222.75;;;7.52;47.98
30935;BME280;51033;42.648;23.292;2022-10-18T05:19:47;95236.03;;;7.67;47.84
30935;BME280;51033;42.648;23.292;2022-10-18T05:22:12;95212.16;;;7.52;48.06
30935;BME280;51033;42.648;23.292;2022-10-18T05:24:38;95244.03;;;7.73;48.15
30935;BME280;51033;42.648;23.292;2022-10-18T05:27:03;95246.41;;;7.74;48.33
30935;BME280;51033;42.648;23.292;2022-10-18T05:29:29;95243.28;;;7.82;48.24
30935;BME280;51033;42.648;23.292;2022-10-18T05:31:54;95218.56;;;7.66;48.24
30935;BME280;51033;42.648;23.292;2022-10-18T05:34:20;95210.63;;;7.66;48.46
30935;BME280;51033;42.648;23.292;2022-10-18T05:36:46;95227.63;;;7.81;48.23
30935;BME280;51033;42.648;23.292;2022-10-18T05:39:13;95236.66;;;7.85;48.35
30935;BME280;51033;42.648;23.292;2022-10-18T05:41:38;95239.59;;;7.98;48.44
30935;BME280;51033;42.648;23.292;2022-10-18T05:44:04;95231.38;;;7.95;48.27
30935;BME280;51033;42.648;23.292;2022-10-18T05:46:31;95257.34;;;8.08;48.30
30935;BME280;51033;42.648;23.292;2022-10-18T05:48:56;95243.31;;;8.12;48.13
30935;BME280;51033;42.648;23.292;2022-10-18T05:51:22;95208.06;;;7.97;48.21
30935;BME280;51033;42.648;23.292;2022-10-18T05:53:47;95260.59;;;8.30;48.06
30935;BME280;51033;42.648;23.292;2022-10-18T05:56:13;95233.78;;;8.06;48.49
30935;BME280;51033;42.648;23.292;2022-10-18T05:58:39;95212.59;;;8.01;48.28
30935;BME280;51033;42.648;23.292;2022-10-18T06:01:05;95242.56;;;8.37;48.14
30935;BME280;51033;42.648;23.292;2022-10-18T06:03:31;95260.59;;;8.40;48.21
30935;BME280;51033;42.648;23.292;2022-10-18T06:06:05;95258.75;;;8.46;48.34
30935;BME280;51033;42.648;23.292;2022-10-18T06:08:31;95254.78;;;8.53;48.25
30935;BME280;51033;42.648;23.292;2022-10-18T06:10:57;95265.91;;;8.50;48.25
30935;BME280;51033;42.648;23.292;2022-10-18T06:13:22;95258.47;;;8.63;48.36
30935;BME280;51033;42.648;23.292;2022-10-18T06:15:48;95257.44;;;8.74;48.69
30935;BME280;51033;42.648;23.292;2022-10-18T06:18:14;95243.63;;;8.77;48.43
30935;BME280;51033;42.648;23.292;2022-10-18T06:20:39;95254.53;;;8.70;48.55
30935;BME280;51033;42.648;23.292;2022-10-18T06:23:05;95227.44;;;8.68;49.05
30935;BME280;51033;42.648;23.292;2022-10-18T06:25:30;95254.22;;;8.97;47.91
30935;BME280;51033;42.648;23.292;2022-10-18T06:27:56;95239.06;;;9.08;48.20
30935;BME280;51033;42.648;23.292;2022-10-18T06:30:40;95237.72;;;9.10;47.36
30935;BME280;51033;42.648;23.292;2022-10-18T06:33:22;95248.34;;;9.30;47.11
30935;BME280;51033;42.648;23.292;2022-10-18T06:35:56;95247.25;;;9.41;47.16
30935;BME280;51033;42.648;23.292;2022-10-18T06:38:27;95215.66;;;9.40;46.89
30935;BME280;51033;42.648;23.292;2022-10-18T06:40:55;95240.25;;;9.66;46.81
30935;BME280;51033;42.648;23.292;2022-10-18T06:46:28;95244.78;;;9.60;46.74
30935;BME280;51033;42.648;23.292;2022-10-18T06:48:54;95219.56;;;9.58;46.50
30935;BME280;51033;42.648;23.292;2022-10-18T06:51:20;95240.22;;;9.76;46.47
30935;BME280;51033;42.648;23.292;2022-10-18T06:53:46;95252.88;;;9.94;46.47
30935;BME280;51033;42.648;23.292;2022-10-18T06:56:12;95240.06;;;10.06;46.25
30935;BME280;51033;42.648;23.292;2022-10-18T06:58:38;95151.66;;;9.41;45.91
30935;BME280;51033;42.648;23.292;2022-10-18T07:03:31;95249.56;;;10.12;45.70
30935;BME280;51033;42.648;23.292;2022-10-18T07:06:06;95250.63;;;10.16;45.65
30935;BME280;51033;42.648;23.292;2022-10-18T07:08:33;95253.84;;;10.08;45.76
30935;BME280;51033;42.648;23.292;2022-10-18T07:10:58;95222.97;;;10.12;45.83
30935;BME280;51033;42.648;23.292;2022-10-18T07:13:26;95252.41;;;10.36;45.61
30935;BME280;51033;42.648;23.292;2022-10-18T07:16:10;95246.78;;;10.38;45.71
30935;BME280;51033;42.648;23.292;2022-10-18T07:18:38;95258.72;;;10.45;45.76
30935;BME280;51033;42.648;23.292;2022-10-18T07:21:08;95234.25;;;10.43;45.91
30935;BME280;51033;42.648;23.292;2022-10-18T07:23:36;95237.94;;;10.47;46.10
30935;BME280;51033;42.648;23.292;2022-10-18T07:26:05;95248.75;;;10.61;45.84
30935;BME280;51033;42.648;23.292;2022-10-18T07:28:35;95225.72;;;10.46;45.99
30935;BME280;51033;42.648;23.292;2022-10-18T07:31:05;95217.41;;;10.53;45.88
30935;BME280;51033;42.648;23.292;2022-10-18T07:33:31;95226.22;;;10.48;45.81
30935;BME280;51033;42.648;23.292;2022-10-18T07:36:03;95203.56;;;10.17;46.15
30935;BME280;51033;42.648;23.292;2022-10-18T07:38:29;95238.00;;;10.37;46.16
30935;BME280;51033;42.648;23.292;2022-10-18T07:40:56;95223.38;;;10.40;46.26
30935;BME280;51033;42.648;23.292;2022-10-18T07:43:23;95225.19;;;10.44;45.95
30935;BME280;51033;42.648;23.292;2022-10-18T07:45:53;95234.16;;;10.53;45.97
30935;BME280;51033;42.648;23.292;2022-10-18T07:48:19;95226.25;;;10.43;46.59
30935;BME280;51033;42.648;23.292;2022-10-18T07:50:44;95217.53;;;10.32;46.57
30935;BME280;51033;42.648;23.292;2022-10-18T07:53:09;95195.44;;;9.98;47.06
30935;BME280;51033;42.648;23.292;2022-10-18T07:55:35;95171.41;;;10.13;46.80
30935;BME280;51033;42.648;23.292;2022-10-18T07:58:00;95188.84;;;10.29;46.33
30935;BME280;51033;42.648;23.292;2022-10-18T08:00:26;95193.78;;;10.51;46.02
30935;BME280;51033;42.648;23.292;2022-10-18T08:02:55;95165.94;;;10.39;46.08
30935;BME280;51033;42.648;23.292;2022-10-18T08:05:22;95220.06;;;10.87;45.54
30935;BME280;51033;42.648;23.292;2022-10-18T08:07:47;95182.50;;;10.88;45.64
30935;BME280;51033;42.648;23.292;2022-10-18T08:10:13;95182.91;;;11.00;45.34
30935;BME280;51033;42.648;23.292;2022-10-18T08:12:38;95192.38;;;11.11;45.00
30935;BME280;51033;42.648;23.292;2022-10-18T08:15:05;95176.88;;;10.95;45.08
30935;BME280;51033;42.648;23.292;2022-10-18T08:17:30;95133.97;;;10.44;45.37
30935;BME280;51033;42.648;23.292;2022-10-18T08:19:55;95151.75;;;10.77;45.27
30935;BME280;51033;42.648;23.292;2022-10-18T08:22:21;95169.06;;;11.03;45.03
30935;BME280;51033;42.648;23.292;2022-10-18T08:24:48;95184.13;;;11.13;44.95
30935;BME280;51033;42.648;23.292;2022-10-18T08:27:14;95168.38;;;11.16;45.04
30935;BME280;51033;42.648;23.292;2022-10-18T08:29:39;95174.59;;;11.31;44.63
30935;BME280;51033;42.648;23.292;2022-10-18T08:32:05;95158.72;;;11.21;44.44
30935;BME280;51033;42.648;23.292;2022-10-18T08:34:32;95169.16;;;11.41;44.36
30935;BME280;51033;42.648;23.292;2022-10-18T08:36:57;95169.09;;;11.46;44.65
30935;BME280;51033;42.648;23.292;2022-10-18T08:39:23;95173.19;;;11.38;44.25
30935;BME280;51033;42.648;23.292;2022-10-18T08:44:30;95162.03;;;11.79;44.24
30935;BME280;51033;42.648;23.292;2022-10-18T08:47:05;95156.41;;;11.80;43.83
30935;BME280;51033;42.648;23.292;2022-10-18T08:49:45;95155.06;;;11.83;43.72
30935;BME280;51033;42.648;23.292;2022-10-18T08:55:15;95152.38;;;12.01;43.50
30935;BME280;51033;42.648;23.292;2022-10-18T08:57:45;95105.84;;;11.75;43.24
30935;BME280;51033;42.648;23.292;2022-10-18T09:00:20;95147.97;;;12.11;43.42
30935;BME280;51033;42.648;23.292;2022-10-18T09:02:58;95132.19;;;11.95;43.09
30935;BME280;51033;42.648;23.292;2022-10-18T09:16:04;95152.44;;;12.66;41.80
30935;BME280;51033;42.648;23.292;2022-10-18T09:18:54;95137.50;;;12.65;42.23
30935;BME280;51033;42.648;23.292;2022-10-18T09:24:12;95141.34;;;12.59;41.87
30935;BME280;51033;42.648;23.292;2022-10-18T09:26:46;95129.31;;;12.75;41.88
30935;BME280;51033;42.648;23.292;2022-10-18T09:37:40;95124.31;;;13.28;41.21
30935;BME280;51033;42.648;23.292;2022-10-18T09:40:20;95122.22;;;13.12;40.80
30935;BME280;51033;42.648;23.292;2022-10-18T09:43:10;95121.03;;;13.18;40.81
30935;BME280;51033;42.648;23.292;2022-10-18T09:45:40;95107.59;;;13.09;40.55
30935;BME280;51033;42.648;23.292;2022-10-18T09:48:30;95109.44;;;13.36;40.62
30935;BME280;51033;42.648;23.292;2022-10-18T09:51:04;95101.50;;;13.45;40.57
30935;BME280;51033;42.648;23.292;2022-10-18T09:56:14;95070.09;;;13.01;40.58
30935;BME280;51033;42.648;23.292;2022-10-18T09:58:43;95111.22;;;13.41;40.52
30935;BME280;51033;42.648;23.292;2022-10-18T10:01:12;95107.84;;;13.35;40.48
30935;BME280;51033;42.648;23.292;2022-10-18T10:03:39;95103.78;;;13.51;40.86
30935;BME280;51033;42.648;23.292;2022-10-18T10:06:15;95098.75;;;13.63;40.33
30935;BME280;51033;42.648;23.292;2022-10-18T10:08:48;95072.59;;;13.60;39.99
30935;BME280;51033;42.648;23.292;2022-10-18T10:13:56;95059.16;;;13.88;39.22
30935;BME280;51033;42.648;23.292;2022-10-18T10:16:24;95076.66;;;14.16;38.98
30935;BME280;51033;42.648;23.292;2022-10-18T10:18:52;95062.72;;;14.28;38.87
30935;BME280;51033;42.648;23.292;2022-10-18T10:21:19;95058.41;;;14.40;38.65
30935;BME280;51033;42.648;23.292;2022-10-18T10:23:50;95065.13;;;14.38;38.53
30935;BME280;51033;42.648;23.292;2022-10-18T10:26:29;95029.25;;;14.39;39.07
30935;BME280;51033;42.648;23.292;2022-10-18T10:28:56;95009.34;;;14.23;37.72
30935;BME280;51033;42.648;23.292;2022-10-18T10:31:27;95041.50;;;14.31;37.73
30935;BME280;51033;42.648;23.292;2022-10-18T10:36:49;95005.16;;;14.39;37.63
30935;BME280;51033;42.648;23.292;2022-10-18T10:39:16;95033.53;;;14.71;37.64
30935;BME280;51033;42.648;23.292;2022-10-18T10:41:47;95023.50;;;14.85;37.21
30935;BME280;51033;42.648;23.292;2022-10-18T10:44:24;95018.81;;;14.99;37.15
30935;BME280;51033;42.648;23.292;2022-10-18T10:46:52;95011.88;;;15.07;36.31
30935;BME280;51033;42.648;23.292;2022-10-18T10:49:45;95009.09;;;15.20;36.95
30935;BME280;51033;42.648;23.292;2022-10-18T10:52:17;94969.34;;;15.05;36.27
30935;BME280;51033;42.648;23.292;2022-10-18T10:54:43;94990.00;;;15.30;36.46
30935;BME280;51033;42.648;23.292;2022-10-18T10:59:46;94997.13;;;15.43;35.45
30935;BME280;51033;42.648;23.292;2022-10-18T11:04:49;94979.34;;;15.56;34.26
30935;BME280;51033;42.648;23.292;2022-10-18T11:07:29;94962.94;;;15.58;33.66
30935;BME280;51033;42.648;23.292;2022-10-18T11:12:31;94970.94;;;15.92;33.97
30935;BME280;51033;42.648;23.292;2022-10-18T11:20:46;94952.72;;;16.15;33.82
30935;BME280;51033;42.648;23.292;2022-10-18T11:23:14;94926.06;;;16.10;35.28
30935;BME280;51033;42.648;23.292;2022-10-18T11:31:41;94939.25;;;16.41;34.10
30935;BME280;51033;42.648;23.292;2022-10-18T11:36:40;94924.50;;;16.55;33.64
30935;BME280;51033;42.648;23.292;2022-10-18T11:42:18;94917.84;;;16.61;32.18
30935;BME280;51033;42.648;23.292;2022-10-18T11:52:37;94879.16;;;16.54;32.58
30935;BME280;51033;42.648;23.292;2022-10-18T11:57:54;94900.19;;;16.81;32.58
30935;BME280;51033;42.648;23.292;2022-10-18T12:06:24;94859.50;;;16.91;31.67
30935;BME280;51033;42.648;23.292;2022-10-18T12:08:56;94873.53;;;17.17;30.77
30935;BME280;51033;42.648;23.292;2022-10-18T12:11:28;94870.41;;;17.15;29.58
30935;BME280;51033;42.648;23.292;2022-10-18T12:14:01;94857.28;;;17.14;30.02
30935;BME280;51033;42.648;23.292;2022-10-18T12:16:31;94850.00;;;17.14;30.55
30935;BME280;51033;42.648;23.292;2022-10-18T12:19:03;94839.63;;;17.04;29.80
30935;BME280;51033;42.648;23.292;2022-10-18T12:21:33;94858.06;;;17.35;30.25
30935;BME280;51033;42.648;23.292;2022-10-18T12:24:03;94839.38;;;17.51;30.63
30935;BME280;51033;42.648;23.292;2022-10-18T12:26:31;94838.91;;;17.70;30.05
30935;BME280;51033;42.648;23.292;2022-10-18T12:31:45;94829.47;;;17.76;31.57
30935;BME280;51033;42.648;23.292;2022-10-18T12:39:42;94817.50;;;17.85;29.20
30935;BME280;51033;42.648;23.292;2022-10-18T12:42:26;94808.09;;;17.91;27.82
30935;BME280;51033;42.648;23.292;2022-10-18T12:47:41;94786.69;;;17.95;27.88
30935;BME280;51033;42.648;23.292;2022-10-18T12:55:39;94800.72;;;18.00;26.83
30935;BME280;51033;42.648;23.292;2022-10-18T12:58:28;94772.66;;;17.77;28.30
30935;BME280;51033;42.648;23.292;2022-10-18T13:00:56;94785.91;;;17.94;29.01
30935;BME280;51033;42.648;23.292;2022-10-18T13:19:08;94773.75;;;18.49;26.69
30935;BME280;51033;42.648;23.292;2022-10-18T13:24:53;94779.38;;;18.56;28.40
30935;BME280;51033;42.648;23.292;2022-10-18T13:30:43;94778.44;;;18.64;27.54
30935;BME280;51033;42.648;23.292;2022-10-18T13:33:30;94780.34;;;18.64;28.37
30935;BME280;51033;42.648;23.292;2022-10-18T13:41:03;94765.72;;;18.89;28.40
30935;BME280;51033;42.648;23.292;2022-10-18T13:46:21;94735.28;;;18.88;27.91
30935;BME280;51033;42.648;23.292;2022-10-18T13:48:51;94718.94;;;18.69;27.15
30935;BME280;51033;42.648;23.292;2022-10-18T13:51:42;94754.75;;;18.82;26.47
30935;BME280;51033;42.648;23.292;2022-10-18T13:54:22;94753.38;;;18.88;26.78
30935;BME280;51033;42.648;23.292;2022-10-18T14:08:08;94742.38;;;18.29;27.25
30935;BME280;51033;42.648;23.292;2022-10-18T14:10:45;94739.53;;;18.50;26.99
30935;BME280;51033;42.648;23.292;2022-10-18T14:13:19;94734.75;;;18.31;26.98
30935;BME280;51033;42.648;23.292;2022-10-18T14:15:48;94743.16;;;18.29;27.39
30935;BME280;51033;42.648;23.292;2022-10-18T14:18:20;94705.03;;;17.91;27.36
30935;BME280;51033;42.648;23.292;2022-10-18T14:20:54;94743.50;;;17.79;27.75
30935;BME280;51033;42.648;23.292;2022-10-18T14:23:25;94713.97;;;17.46;28.43
30935;BME280;51033;42.648;23.292;2022-10-18T14:28:38;94739.97;;;17.42;28.30
30935;BME280;51033;42.648;23.292;2022-10-18T14:31:05;94713.53;;;17.11;28.13
30935;BME280;51033;42.648;23.292;2022-10-18T14:33:52;94727.19;;;17.06;28.60
30935;BME280;51033;42.648;23.292;2022-10-18T14:41:21;94720.13;;;16.69;29.82
30935;BME280;51033;42.648;23.292;2022-10-18T14:43:47;94720.53;;;16.38;29.54
30935;BME280;51033;42.648;23.292;2022-10-18T14:46:23;94725.31;;;16.33;29.13
30935;BME280;51033;42.648;23.292;2022-10-18T14:48:59;94728.78;;;16.33;29.84
30935;BME280;51033;42.648;23.292;2022-10-18T14:51:28;94696.00;;;15.98;30.17
30935;BME280;51033;42.648;23.292;2022-10-18T14:53:54;94713.03;;;16.02;30.05
30935;BME280;51033;42.648;23.292;2022-10-18T14:56:29;94710.25;;;15.90;30.48
30935;BME280;51033;42.648;23.292;2022-10-18T14:58:57;94714.44;;;15.79;30.63
30935;BME280;51033;42.648;23.292;2022-10-18T15:01:35;94699.94;;;15.71;30.41
30935;BME280;51033;42.648;23.292;2022-10-18T15:04:09;94711.94;;;15.65;30.14
30935;BME280;51033;42.648;23.292;2022-10-18T15:06:42;94703.41;;;15.72;30.03
30935;BME280;51033;42.648;23.292;2022-10-18T15:09:09;94699.75;;;15.76;29.40
30935;BME280;51033;42.648;23.292;2022-10-18T15:11:36;94670.00;;;15.61;29.73
30935;BME280;51033;42.648;23.292;2022-10-18T15:14:08;94684.16;;;15.70;29.18
30935;BME280;51033;42.648;23.292;2022-10-18T15:16:37;94681.66;;;15.65;29.04
30935;BME280;51033;42.648;23.292;2022-10-18T15:19:28;94691.75;;;15.68;28.58
30935;BME280;51033;42.648;23.292;2022-10-18T15:26:52;94686.81;;;15.78;28.62
30935;BME280;51033;42.648;23.292;2022-10-18T15:29:19;94674.19;;;15.50;28.05
30935;BME280;51033;42.648;23.292;2022-10-18T15:31:49;94677.97;;;15.49;28.34
30935;BME280;51033;42.648;23.292;2022-10-18T15:34:24;94675.44;;;15.52;28.22
30935;BME280;51033;42.648;23.292;2022-10-18T15:36:52;94671.78;;;15.57;28.39
30935;BME280;51033;42.648;23.292;2022-10-18T15:39:24;94678.72;;;15.58;28.23
30935;BME280;51033;42.648;23.292;2022-10-18T15:41:52;94642.06;;;15.32;28.02
30935;BME280;51033;42.648;23.292;2022-10-18T15:44:34;94671.06;;;15.39;27.75
30935;BME280;51033;42.648;23.292;2022-10-18T15:54:41;94640.06;;;15.21;27.57
30935;BME280;51033;42.648;23.292;2022-10-18T15:57:10;94663.69;;;15.27;27.42
30935;BME280;51033;42.648;23.292;2022-10-18T15:59:47;94675.22;;;15.19;27.78
30935;BME280;51033;42.648;23.292;2022-10-18T16:02:14;94643.97;;;14.85;28.00
30935;BME280;51033;42.648;23.292;2022-10-18T16:04:40;94676.75;;;14.91;27.90
30935;BME280;51033;42.648;23.292;2022-10-18T16:07:05;94674.06;;;14.91;27.98
30935;BME280;51033;42.648;23.292;2022-10-18T16:09:31;94693.25;;;14.93;28.39
30935;BME280;51033;42.648;23.292;2022-10-18T16:11:56;94662.78;;;14.59;29.08